sensor_id;sensor_type;location;lat;lon;timestamp;temperature;humidity
73576;DHT22;61859;49.204;8.140;2023-11-21T00:00:22;8.80;99.90
73576;DHT22;61859;49.204;8.140;2023-11-21T00:02:47;8.90;99.90
73576;DHT22;61859;49.204;8.140;2023-11-21T00:05:13;8.80;99.90
73576;DHT22;61859;49.204;8.140;2023-11-21T00:07:40;8.80;99.90
73576;DHT22;61859;49.204;8.140;2023-11-21T00:10:07;8.90;99.90
73576;DHT22;61859;49.204;8.140;2023-11-21T00:12:34;8.90;99.90
73576;DHT22;61859;49.204;8.140;2023-11-21T00:14:59;8.80;99.90
73576;DHT22;61859;49.204;8.140;2023-11-21T00:17:25;8.80;99.90
73576;DHT22;61859;49.204;8.140;2023-11-21T00:19:50;8.80;99.90
73576;DHT22;61859;49.204;8.140;2023-11-21T00:22:19;8.90;99.90
73576;DHT22;61859;49.204;8.140;2023-11-21T00:24:45;8.80;99.90
73576;DHT22;61859;49.204;8.140;2023-11-21T00:27:10;8.90;99.90
73576;DHT22;61859;49.204;8.140;2023-11-21T00:29:36;8.90;99.90
73576;DHT22;61859;49.204;8.140;2023-11-21T00:32:02;8.90;99.90
73576;DHT22;61859;49.204;8.140;2023-11-21T00:34:28;8.90;99.90
73576;DHT22;61859;49.204;8.140;2023-11-21T00:36:53;8.80;99.90
73576;DHT22;61859;49.204;8.140;2023-11-21T00:39:19;8.80;99.90
73576;DHT22;61859;49.204;8.140;2023-11-21T00:41:44;8.80;99.90
73576;DHT22;61859;49.204;8.140;2023-11-21T00:44:11;8.80;99.90
73576;DHT22;61859;49.204;8.140;2023-11-21T00:46:36;8.90;99.90
73576;DHT22;61859;49.204;8.140;2023-11-21T00:49:02;8.80;99.90
73576;DHT22;61859;49.204;8.140;2023-11-21T00:51:29;8.80;99.90
73576;DHT22;61859;49.204;8.140;2023-11-21T00:53:55;8.90;99.90
73576;DHT22;61859;49.204;8.140;2023-11-21T00:56:21;8.80;99.90
73576;DHT22;61859;49.204;8.140;2023-11-21T00:58:47;8.90;99.90
73576;DHT22;61859;49.204;8.140;2023-11-21T01:01:15;8.80;99.90
73576;DHT22;61859;49.204;8.140;2023-11-21T01:03:41;8.80;99.90
73576;DHT22;61859;49.204;8.140;2023-11-21T01:06:07;8.90;99.90
73576;DHT22;61859;49.204;8.140;2023-11-21T01:08:33;8.80;99.90
73576;DHT22;61859;49.204;8.140;2023-11-21T01:10:58;8.90;99.90
73576;DHT22;61859;49.204;8.140;2023-11-21T01:13:24;8.90;99.90
73576;DHT22;61859;49.204;8.140;2023-11-21T01:15:54;8.90;99.90
73576;DHT22;61859;49.204;8.140;2023-11-21T01:18:19;8.80;99.90
73576;DHT22;61859;49.204;8.140;2023-11-21T01:20:45;8.80;99.90
73576;DHT22;61859;49.204;8.140;2023-11-21T01:23:12;8.90;99.90
73576;DHT22;61859;49.204;8.140;2023-11-21T01:25:38;8.80;99.90
73576;DHT22;61859;49.204;8.140;2023-11-21T01:28:04;8.70;99.90
73576;DHT22;61859;49.204;8.140;2023-11-21T01:30:30;8.80;99.90
73576;DHT22;61859;49.204;8.140;2023-11-21T01:32:58;8.90;99.90
73576;DHT22;61859;49.204;8.140;2023-11-21T01:35:23;8.90;99.90
73576;DHT22;61859;49.204;8.140;2023-11-21T01:37:49;8.90;99.90
73576;DHT22;61859;49.204;8.140;2023-11-21T01:40:14;8.90;99.90
73576;DHT22;61859;49.204;8.140;2023-11-21T01:42:41;8.90;99.90
73576;DHT22;61859;49.204;8.140;2023-11-21T01:45:09;8.90;99.90
73576;DHT22;61859;49.204;8.140;2023-11-21T01:47:35;8.90;99.90
73576;DHT22;61859;49.204;8.140;2023-11-21T01:50:02;8.90;99.90
73576;DHT22;61859;49.204;8.140;2023-11-21T01:52:30;8.80;99.90
73576;DHT22;61859;49.204;8.140;2023-11-21T01:54:56;8.90;99.90
73576;DHT22;61859;49.204;8.140;2023-11-21T01:57:22;8.90;99.90
73576;DHT22;61859;49.204;8.140;2023-11-21T01:59:49;8.90;99.90
73576;DHT22;61859;49.204;8.140;2023-11-21T02:02:15;8.90;99.90
73576;DHT22;61859;49.204;8.140;2023-11-21T02:04:41;8.90;99.90
73576;DHT22;61859;49.204;8.140;2023-11-21T02:07:06;8.90;99.90
73576;DHT22;61859;49.204;8.140;2023-11-21T02:09:32;8.90;99.90
73576;DHT22;61859;49.204;8.140;2023-11-21T02:12:04;8.90;99.90
73576;DHT22;61859;49.204;8.140;2023-11-21T02:14:30;8.80;99.90
73576;DHT22;61859;49.204;8.140;2023-11-21T02:16:56;8.90;99.90
73576;DHT22;61859;49.204;8.140;2023-11-21T02:19:23;8.90;99.90
73576;DHT22;61859;49.204;8.140;2023-11-21T02:21:54;8.90;99.90
73576;DHT22;61859;49.204;8.140;2023-11-21T02:24:23;8.90;99.90
73576;DHT22;61859;49.204;8.140;2023-11-21T02:26:49;8.90;99.90
73576;DHT22;61859;49.204;8.140;2023-11-21T02:29:18;8.90;99.90
73576;DHT22;61859;49.204;8.140;2023-11-21T02:31:51;8.90;99.90
73576;DHT22;61859;49.204;8.140;2023-11-21T02:34:17;8.90;99.90
73576;DHT22;61859;49.204;8.140;2023-11-21T02:36:44;8.80;99.90
73576;DHT22;61859;49.204;8.140;2023-11-21T02:39:12;8.80;99.90
73576;DHT22;61859;49.204;8.140;2023-11-21T02:41:38;8.90;99.90
73576;DHT22;61859;49.204;8.140;2023-11-21T02:44:05;8.90;99.90
73576;DHT22;61859;49.204;8.140;2023-11-21T02:46:35;8.90;99.90
73576;DHT22;61859;49.204;8.140;2023-11-21T02:49:02;8.90;99.90
73576;DHT22;61859;49.204;8.140;2023-11-21T02:51:28;8.90;99.90
73576;DHT22;61859;49.204;8.140;2023-11-21T02:53:54;8.80;99.90
73576;DHT22;61859;49.204;8.140;2023-11-21T02:56:19;8.90;99.90
73576;DHT22;61859;49.204;8.140;2023-11-21T02:58:45;8.90;99.90
73576;DHT22;61859;49.204;8.140;2023-11-21T03:01:11;8.90;99.90
73576;DHT22;61859;49.204;8.140;2023-11-21T03:03:37;8.90;99.90
73576;DHT22;61859;49.204;8.140;2023-11-21T03:06:05;8.80;99.90
73576;DHT22;61859;49.204;8.140;2023-11-21T03:08:31;8.80;99.90
73576;DHT22;61859;49.204;8.140;2023-11-21T03:10:57;8.90;99.90
73576;DHT22;61859;49.204;8.140;2023-11-21T03:13:23;8.80;99.90
73576;DHT22;61859;49.204;8.140;2023-11-21T03:15:48;8.80;99.90
73576;DHT22;61859;49.204;8.140;2023-11-21T03:18:14;8.80;99.90
73576;DHT22;61859;49.204;8.140;2023-11-21T03:20:39;8.80;99.90
73576;DHT22;61859;49.204;8.140;2023-11-21T03:23:05;8.80;99.90
73576;DHT22;61859;49.204;8.140;2023-11-21T03:25:30;8.90;99.90
73576;DHT22;61859;49.204;8.140;2023-11-21T03:27:56;8.80;99.90
73576;DHT22;61859;49.204;8.140;2023-11-21T03:30:22;8.80;99.90
73576;DHT22;61859;49.204;8.140;2023-11-21T03:32:47;8.80;99.90
73576;DHT22;61859;49.204;8.140;2023-11-21T03:35:13;8.80;99.90
73576;DHT22;61859;49.204;8.140;2023-11-21T03:37:38;8.90;99.90
73576;DHT22;61859;49.204;8.140;2023-11-21T03:40:07;8.90;99.90
73576;DHT22;61859;49.204;8.140;2023-11-21T03:42:38;8.80;99.90
73576;DHT22;61859;49.204;8.140;2023-11-21T03:45:04;8.80;99.90
73576;DHT22;61859;49.204;8.140;2023-11-21T03:47:30;8.70;99.90
73576;DHT22;61859;49.204;8.140;2023-11-21T03:49:55;8.80;99.90
73576;DHT22;61859;49.204;8.140;2023-11-21T03:52:21;8.80;99.90
73576;DHT22;61859;49.204;8.140;2023-11-21T03:54:46;8.70;99.90
73576;DHT22;61859;49.204;8.140;2023-11-21T03:57:12;8.80;99.90
73576;DHT22;61859;49.204;8.140;2023-11-21T03:59:41;8.70;99.90
73576;DHT22;61859;49.204;8.140;2023-11-21T04:02:07;8.70;99.90
73576;DHT22;61859;49.204;8.140;2023-11-21T04:04:33;8.70;99.90
73576;DHT22;61859;49.204;8.140;2023-11-21T04:06:59;8.70;99.90
73576;DHT22;61859;49.204;8.140;2023-11-21T04:09:25;8.80;99.90
73576;DHT22;61859;49.204;8.140;2023-11-21T04:11:51;8.70;99.90
73576;DHT22;61859;49.204;8.140;2023-11-21T04:14:17;8.60;99.90
73576;DHT22;61859;49.204;8.140;2023-11-21T04:16:42;8.70;99.90
73576;DHT22;61859;49.204;8.140;2023-11-21T04:19:08;8.60;99.90
73576;DHT22;61859;49.204;8.140;2023-11-21T04:21:40;8.70;99.90
73576;DHT22;61859;49.204;8.140;2023-11-21T04:24:06;8.60;99.90
73576;DHT22;61859;49.204;8.140;2023-11-21T04:26:32;8.70;99.90
73576;DHT22;61859;49.204;8.140;2023-11-21T04:28:57;8.70;99.90
73576;DHT22;61859;49.204;8.140;2023-11-21T04:31:23;8.70;99.90
73576;DHT22;61859;49.204;8.140;2023-11-21T04:33:48;8.70;99.90
73576;DHT22;61859;49.204;8.140;2023-11-21T04:36:14;8.70;99.90
73576;DHT22;61859;49.204;8.140;2023-11-21T04:38:39;8.60;99.90
73576;DHT22;61859;49.204;8.140;2023-11-21T04:41:06;8.70;99.90
73576;DHT22;61859;49.204;8.140;2023-11-21T04:43:31;8.70;99.90
73576;DHT22;61859;49.204;8.140;2023-11-21T04:45:57;8.80;99.90
73576;DHT22;61859;49.204;8.140;2023-11-21T04:48:22;8.80;99.90
73576;DHT22;61859;49.204;8.140;2023-11-21T04:50:48;8.70;99.90
73576;DHT22;61859;49.204;8.140;2023-11-21T04:53:13;8.80;99.90
73576;DHT22;61859;49.204;8.140;2023-11-21T04:55:40;8.80;99.90
73576;DHT22;61859;49.204;8.140;2023-11-21T04:58:06;8.80;99.90
73576;DHT22;61859;49.204;8.140;2023-11-21T05:00:31;8.80;99.90
73576;DHT22;61859;49.204;8.140;2023-11-21T05:02:57;8.80;99.90
73576;DHT22;61859;49.204;8.140;2023-11-21T05:05:22;8.80;99.90
73576;DHT22;61859;49.204;8.140;2023-11-21T05:07:49;8.70;99.90
73576;DHT22;61859;49.204;8.140;2023-11-21T05:10:15;8.70;99.90
73576;DHT22;61859;49.204;8.140;2023-11-21T05:12:43;8.60;99.90
73576;DHT22;61859;49.204;8.140;2023-11-21T05:15:09;8.70;99.90
73576;DHT22;61859;49.204;8.140;2023-11-21T05:17:39;8.70;99.90
73576;DHT22;61859;49.204;8.140;2023-11-21T05:20:08;8.60;99.90
73576;DHT22;61859;49.204;8.140;2023-11-21T05:22:35;8.70;99.90
73576;DHT22;61859;49.204;8.140;2023-11-21T05:25:01;8.60;99.90
73576;DHT22;61859;49.204;8.140;2023-11-21T05:27:29;8.60;99.90
73576;DHT22;61859;49.204;8.140;2023-11-21T05:29:56;8.70;99.90
73576;DHT22;61859;49.204;8.140;2023-11-21T05:32:22;8.70;99.90
73576;DHT22;61859;49.204;8.140;2023-11-21T05:34:49;8.60;99.90
73576;DHT22;61859;49.204;8.140;2023-11-21T05:37:14;8.60;99.90
73576;DHT22;61859;49.204;8.140;2023-11-21T05:39:40;8.60;99.90
73576;DHT22;61859;49.204;8.140;2023-11-21T05:42:05;8.70;99.90
73576;DHT22;61859;49.204;8.140;2023-11-21T05:44:31;8.70;99.90
73576;DHT22;61859;49.204;8.140;2023-11-21T05:46:57;8.60;99.90
73576;DHT22;61859;49.204;8.140;2023-11-21T05:49:24;8.70;99.90
73576;DHT22;61859;49.204;8.140;2023-11-21T05:51:52;8.60;99.90
73576;DHT22;61859;49.204;8.140;2023-11-21T05:54:19;8.70;99.90
73576;DHT22;61859;49.204;8.140;2023-11-21T05:56:45;8.70;99.90
73576;DHT22;61859;49.204;8.140;2023-11-21T05:59:10;8.70;99.90
73576;DHT22;61859;49.204;8.140;2023-11-21T06:01:36;8.70;99.90
73576;DHT22;61859;49.204;8.140;2023-11-21T06:04:07;8.70;99.90
73576;DHT22;61859;49.204;8.140;2023-11-21T06:06:35;8.80;99.90
73576;DHT22;61859;49.204;8.140;2023-11-21T06:09:00;8.80;99.90
73576;DHT22;61859;49.204;8.140;2023-11-21T06:11:26;8.80;99.90
73576;DHT22;61859;49.204;8.140;2023-11-21T06:13:51;8.70;99.90
73576;DHT22;61859;49.204;8.140;2023-11-21T06:16:18;8.80;99.90
73576;DHT22;61859;49.204;8.140;2023-11-21T06:18:45;8.80;99.90
73576;DHT22;61859;49.204;8.140;2023-11-21T06:21:11;8.80;99.90
73576;DHT22;61859;49.204;8.140;2023-11-21T06:23:37;8.80;99.90
73576;DHT22;61859;49.204;8.140;2023-11-21T06:26:02;8.90;99.90
73576;DHT22;61859;49.204;8.140;2023-11-21T06:28:29;8.90;99.90
73576;DHT22;61859;49.204;8.140;2023-11-21T06:30:56;8.80;99.90
73576;DHT22;61859;49.204;8.140;2023-11-21T06:33:22;8.80;99.90
73576;DHT22;61859;49.204;8.140;2023-11-21T06:35:48;8.70;99.90
73576;DHT22;61859;49.204;8.140;2023-11-21T06:38:13;8.80;99.90
73576;DHT22;61859;49.204;8.140;2023-11-21T06:40:39;8.80;99.90
73576;DHT22;61859;49.204;8.140;2023-11-21T06:43:04;8.90;99.90
73576;DHT22;61859;49.204;8.140;2023-11-21T06:45:32;8.90;99.90
73576;DHT22;61859;49.204;8.140;2023-11-21T06:47:59;9.00;99.90
73576;DHT22;61859;49.204;8.140;2023-11-21T06:50:25;8.90;99.90
73576;DHT22;61859;49.204;8.140;2023-11-21T06:52:50;9.00;99.90
73576;DHT22;61859;49.204;8.140;2023-11-21T06:55:16;8.90;99.90
73576;DHT22;61859;49.204;8.140;2023-11-21T06:57:41;8.90;99.90
73576;DHT22;61859;49.204;8.140;2023-11-21T07:00:08;8.80;99.90
73576;DHT22;61859;49.204;8.140;2023-11-21T07:02:34;8.80;99.90
73576;DHT22;61859;49.204;8.140;2023-11-21T07:05:00;8.80;99.90
73576;DHT22;61859;49.204;8.140;2023-11-21T07:07:27;8.90;99.90
73576;DHT22;61859;49.204;8.140;2023-11-21T07:09:53;8.90;99.90
73576;DHT22;61859;49.204;8.140;2023-11-21T07:12:18;8.80;99.90
73576;DHT22;61859;49.204;8.140;2023-11-21T07:14:44;8.80;99.90
73576;DHT22;61859;49.204;8.140;2023-11-21T07:17:11;8.90;99.90
73576;DHT22;61859;49.204;8.140;2023-11-21T07:19:39;9.00;99.90
73576;DHT22;61859;49.204;8.140;2023-11-21T07:22:06;8.90;99.90
73576;DHT22;61859;49.204;8.140;2023-11-21T07:24:32;8.90;99.90
73576;DHT22;61859;49.204;8.140;2023-11-21T07:26:58;8.90;99.90
73576;DHT22;61859;49.204;8.140;2023-11-21T07:29:24;9.00;99.90
73576;DHT22;61859;49.204;8.140;2023-11-21T07:31:52;9.00;99.90
73576;DHT22;61859;49.204;8.140;2023-11-21T07:34:18;9.00;99.90
73576;DHT22;61859;49.204;8.140;2023-11-21T07:36:43;9.00;99.90
73576;DHT22;61859;49.204;8.140;2023-11-21T07:39:09;9.00;99.90
73576;DHT22;61859;49.204;8.140;2023-11-21T07:41:35;9.00;99.90
73576;DHT22;61859;49.204;8.140;2023-11-21T07:44:02;9.10;99.90
73576;DHT22;61859;49.204;8.140;2023-11-21T07:46:27;9.10;99.90
73576;DHT22;61859;49.204;8.140;2023-11-21T07:48:53;9.20;99.90
73576;DHT22;61859;49.204;8.140;2023-11-21T07:51:18;9.30;99.90
73576;DHT22;61859;49.204;8.140;2023-11-21T07:53:44;9.20;99.90
73576;DHT22;61859;49.204;8.140;2023-11-21T07:56:10;9.30;99.90
73576;DHT22;61859;49.204;8.140;2023-11-21T07:58:36;9.30;99.90
73576;DHT22;61859;49.204;8.140;2023-11-21T08:01:02;9.40;99.90
73576;DHT22;61859;49.204;8.140;2023-11-21T08:03:28;9.40;99.90
73576;DHT22;61859;49.204;8.140;2023-11-21T08:05:58;9.40;99.90
73576;DHT22;61859;49.204;8.140;2023-11-21T08:08:25;9.50;99.90
73576;DHT22;61859;49.204;8.140;2023-11-21T08:10:51;9.50;99.90
73576;DHT22;61859;49.204;8.140;2023-11-21T08:13:26;9.70;99.90
73576;DHT22;61859;49.204;8.140;2023-11-21T08:15:55;9.70;99.90
73576;DHT22;61859;49.204;8.140;2023-11-21T08:18:22;9.70;99.90
73576;DHT22;61859;49.204;8.140;2023-11-21T08:20:48;9.70;99.90
73576;DHT22;61859;49.204;8.140;2023-11-21T08:23:15;9.80;99.90
73576;DHT22;61859;49.204;8.140;2023-11-21T08:25:45;9.60;99.90
73576;DHT22;61859;49.204;8.140;2023-11-21T08:28:11;9.70;99.90
73576;DHT22;61859;49.204;8.140;2023-11-21T08:30:37;9.70;99.90
73576;DHT22;61859;49.204;8.140;2023-11-21T08:33:03;9.70;99.90
73576;DHT22;61859;49.204;8.140;2023-11-21T08:35:29;9.80;99.90
73576;DHT22;61859;49.204;8.140;2023-11-21T08:37:55;9.80;99.90
73576;DHT22;61859;49.204;8.140;2023-11-21T08:40:21;9.90;99.90
73576;DHT22;61859;49.204;8.140;2023-11-21T08:42:47;10.00;99.90
73576;DHT22;61859;49.204;8.140;2023-11-21T08:45:14;9.90;99.90
73576;DHT22;61859;49.204;8.140;2023-11-21T08:47:39;10.00;99.90
73576;DHT22;61859;49.204;8.140;2023-11-21T08:50:06;10.10;99.90
73576;DHT22;61859;49.204;8.140;2023-11-21T08:52:33;10.00;99.90
73576;DHT22;61859;49.204;8.140;2023-11-21T08:54:59;10.10;99.90
73576;DHT22;61859;49.204;8.140;2023-11-21T08:57:28;10.20;99.90
73576;DHT22;61859;49.204;8.140;2023-11-21T08:59:53;10.20;99.90
73576;DHT22;61859;49.204;8.140;2023-11-21T09:02:25;10.30;99.90
73576;DHT22;61859;49.204;8.140;2023-11-21T09:04:51;10.40;99.90
73576;DHT22;61859;49.204;8.140;2023-11-21T09:07:18;10.40;99.90
73576;DHT22;61859;49.204;8.140;2023-11-21T09:09:46;10.50;99.90
73576;DHT22;61859;49.204;8.140;2023-11-21T09:12:11;10.60;99.90
73576;DHT22;61859;49.204;8.140;2023-11-21T09:14:37;10.70;99.90
73576;DHT22;61859;49.204;8.140;2023-11-21T09:17:03;10.70;99.90
73576;DHT22;61859;49.204;8.140;2023-11-21T09:19:29;10.80;99.90
73576;DHT22;61859;49.204;8.140;2023-11-21T09:21:54;10.70;99.90
73576;DHT22;61859;49.204;8.140;2023-11-21T09:24:22;10.90;99.90
73576;DHT22;61859;49.204;8.140;2023-11-21T09:26:48;10.80;99.90
73576;DHT22;61859;49.204;8.140;2023-11-21T09:29:13;10.90;99.50
73576;DHT22;61859;49.204;8.140;2023-11-21T09:31:39;10.90;99.20
73576;DHT22;61859;49.204;8.140;2023-11-21T09:34:05;10.90;98.80
73576;DHT22;61859;49.204;8.140;2023-11-21T09:36:31;10.90;98.90
73576;DHT22;61859;49.204;8.140;2023-11-21T09:38:58;10.90;98.80
73576;DHT22;61859;49.204;8.140;2023-11-21T09:41:43;11.00;98.50
73576;DHT22;61859;49.204;8.140;2023-11-21T09:44:13;11.00;98.10
73576;DHT22;61859;49.204;8.140;2023-11-21T09:46:42;11.00;98.10
73576;DHT22;61859;49.204;8.140;2023-11-21T09:49:09;11.00;97.20
73576;DHT22;61859;49.204;8.140;2023-11-21T09:51:39;10.90;97.80
73576;DHT22;61859;49.204;8.140;2023-11-21T09:54:08;10.90;97.30
73576;DHT22;61859;49.204;8.140;2023-11-21T09:56:35;10.90;97.50
73576;DHT22;61859;49.204;8.140;2023-11-21T09:59:02;11.00;97.20
73576;DHT22;61859;49.204;8.140;2023-11-21T10:01:32;10.90;97.10
73576;DHT22;61859;49.204;8.140;2023-11-21T10:03:58;10.80;97.10
73576;DHT22;61859;49.204;8.140;2023-11-21T10:06:25;10.90;97.60
73576;DHT22;61859;49.204;8.140;2023-11-21T10:08:53;10.90;97.30
73576;DHT22;61859;49.204;8.140;2023-11-21T10:11:20;10.90;96.90
73576;DHT22;61859;49.204;8.140;2023-11-21T10:13:48;10.80;96.60
73576;DHT22;61859;49.204;8.140;2023-11-21T10:16:18;10.80;97.40
73576;DHT22;61859;49.204;8.140;2023-11-21T10:18:48;10.80;98.10
73576;DHT22;61859;49.204;8.140;2023-11-21T10:21:15;10.60;98.40
73576;DHT22;61859;49.204;8.140;2023-11-21T10:23:40;10.60;98.70
73576;DHT22;61859;49.204;8.140;2023-11-21T10:26:06;10.50;98.90
73576;DHT22;61859;49.204;8.140;2023-11-21T10:28:38;10.40;99.50
73576;DHT22;61859;49.204;8.140;2023-11-21T10:31:06;10.50;99.90
73576;DHT22;61859;49.204;8.140;2023-11-21T10:33:32;10.40;99.90
73576;DHT22;61859;49.204;8.140;2023-11-21T10:35:58;10.40;99.90
73576;DHT22;61859;49.204;8.140;2023-11-21T10:38:25;10.50;99.90
73576;DHT22;61859;49.204;8.140;2023-11-21T10:40:54;10.60;99.90
73576;DHT22;61859;49.204;8.140;2023-11-21T10:43:20;10.50;99.90
73576;DHT22;61859;49.204;8.140;2023-11-21T10:45:49;10.50;99.90
73576;DHT22;61859;49.204;8.140;2023-11-21T10:48:15;10.40;99.90
73576;DHT22;61859;49.204;8.140;2023-11-21T10:50:42;10.50;99.90
73576;DHT22;61859;49.204;8.140;2023-11-21T10:53:08;10.50;99.90
73576;DHT22;61859;49.204;8.140;2023-11-21T10:55:34;10.50;99.90
73576;DHT22;61859;49.204;8.140;2023-11-21T10:58:02;10.50;99.90
73576;DHT22;61859;49.204;8.140;2023-11-21T11:00:30;10.60;99.90
73576;DHT22;61859;49.204;8.140;2023-11-21T11:02:57;10.70;99.90
73576;DHT22;61859;49.204;8.140;2023-11-21T11:05:25;10.70;99.90
73576;DHT22;61859;49.204;8.140;2023-11-21T11:07:56;10.70;99.90
73576;DHT22;61859;49.204;8.140;2023-11-21T11:10:25;10.70;99.70
73576;DHT22;61859;49.204;8.140;2023-11-21T11:12:53;10.80;99.80
73576;DHT22;61859;49.204;8.140;2023-11-21T11:15:19;10.90;99.60
73576;DHT22;61859;49.204;8.140;2023-11-21T11:17:46;11.00;99.90
73576;DHT22;61859;49.204;8.140;2023-11-21T11:20:15;11.00;99.20
73576;DHT22;61859;49.204;8.140;2023-11-21T11:22:50;10.90;99.00
73576;DHT22;61859;49.204;8.140;2023-11-21T11:28:27;11.00;98.70
73576;DHT22;61859;49.204;8.140;2023-11-21T11:31:14;11.10;98.30
73576;DHT22;61859;49.204;8.140;2023-11-21T11:33:54;11.10;97.90
73576;DHT22;61859;49.204;8.140;2023-11-21T11:38:48;10.90;97.90
73576;DHT22;61859;49.204;8.140;2023-11-21T11:41:27;10.90;98.60
73576;DHT22;61859;49.204;8.140;2023-11-21T11:43:55;11.00;99.20
73576;DHT22;61859;49.204;8.140;2023-11-21T11:46:20;10.90;98.80
73576;DHT22;61859;49.204;8.140;2023-11-21T11:48:48;11.00;98.10
73576;DHT22;61859;49.204;8.140;2023-11-21T11:51:15;10.80;98.30
73576;DHT22;61859;49.204;8.140;2023-11-21T11:53:43;10.80;98.70
73576;DHT22;61859;49.204;8.140;2023-11-21T11:58:48;10.70;99.20
73576;DHT22;61859;49.204;8.140;2023-11-21T12:01:18;10.50;98.90
73576;DHT22;61859;49.204;8.140;2023-11-21T12:03:44;10.50;99.60
73576;DHT22;61859;49.204;8.140;2023-11-21T12:06:10;10.50;99.70
73576;DHT22;61859;49.204;8.140;2023-11-21T12:08:37;10.60;99.90
73576;DHT22;61859;49.204;8.140;2023-11-21T12:11:04;10.60;99.90
73576;DHT22;61859;49.204;8.140;2023-11-21T12:13:29;10.80;99.70
73576;DHT22;61859;49.204;8.140;2023-11-21T12:15:55;11.00;98.70
73576;DHT22;61859;49.204;8.140;2023-11-21T12:18:21;10.90;98.60
73576;DHT22;61859;49.204;8.140;2023-11-21T12:20:47;11.00;98.00
73576;DHT22;61859;49.204;8.140;2023-11-21T12:23:15;11.10;98.10
73576;DHT22;61859;49.204;8.140;2023-11-21T12:25:42;11.20;97.40
73576;DHT22;61859;49.204;8.140;2023-11-21T12:28:08;11.30;96.80
73576;DHT22;61859;49.204;8.140;2023-11-21T12:30:35;11.50;96.20
73576;DHT22;61859;49.204;8.140;2023-11-21T12:33:02;11.60;95.60
73576;DHT22;61859;49.204;8.140;2023-11-21T12:35:31;11.80;94.60
73576;DHT22;61859;49.204;8.140;2023-11-21T12:37:59;11.80;94.00
73576;DHT22;61859;49.204;8.140;2023-11-21T12:40:25;11.80;93.60
73576;DHT22;61859;49.204;8.140;2023-11-21T12:42:56;12.00;92.80
73576;DHT22;61859;49.204;8.140;2023-11-21T12:45:23;12.10;92.00
73576;DHT22;61859;49.204;8.140;2023-11-21T12:47:53;12.20;92.20
73576;DHT22;61859;49.204;8.140;2023-11-21T12:50:22;12.30;91.50
73576;DHT22;61859;49.204;8.140;2023-11-21T12:52:58;12.40;91.30
73576;DHT22;61859;49.204;8.140;2023-11-21T12:55:24;12.50;91.20
73576;DHT22;61859;49.204;8.140;2023-11-21T12:57:53;12.70;89.80
73576;DHT22;61859;49.204;8.140;2023-11-21T13:00:32;12.80;88.90
73576;DHT22;61859;49.204;8.140;2023-11-21T13:02:59;12.90;87.40
73576;DHT22;61859;49.204;8.140;2023-11-21T13:05:29;13.20;87.70
73576;DHT22;61859;49.204;8.140;2023-11-21T13:08:01;13.60;86.40
73576;DHT22;61859;49.204;8.140;2023-11-21T13:10:29;14.20;83.40
73576;DHT22;61859;49.204;8.140;2023-11-21T13:12:57;14.70;82.10
73576;DHT22;61859;49.204;8.140;2023-11-21T13:15:27;14.80;80.00
73576;DHT22;61859;49.204;8.140;2023-11-21T13:17:54;14.60;80.40
73576;DHT22;61859;49.204;8.140;2023-11-21T13:20:21;14.30;81.80
73576;DHT22;61859;49.204;8.140;2023-11-21T13:25:19;13.80;82.10
73576;DHT22;61859;49.204;8.140;2023-11-21T13:27:45;13.30;83.40
73576;DHT22;61859;49.204;8.140;2023-11-21T13:30:12;13.00;84.60
73576;DHT22;61859;49.204;8.140;2023-11-21T13:32:41;12.80;85.20
73576;DHT22;61859;49.204;8.140;2023-11-21T13:35:07;12.60;86.70
73576;DHT22;61859;49.204;8.140;2023-11-21T13:37:37;12.40;87.60
73576;DHT22;61859;49.204;8.140;2023-11-21T13:40:03;12.30;88.70
73576;DHT22;61859;49.204;8.140;2023-11-21T13:42:35;12.20;89.30
73576;DHT22;61859;49.204;8.140;2023-11-21T13:45:00;12.10;89.80
73576;DHT22;61859;49.204;8.140;2023-11-21T13:47:26;12.00;90.10
73576;DHT22;61859;49.204;8.140;2023-11-21T13:49:54;11.90;90.20
73576;DHT22;61859;49.204;8.140;2023-11-21T13:52:20;12.10;90.80
73576;DHT22;61859;49.204;8.140;2023-11-21T13:54:49;12.00;90.10
73576;DHT22;61859;49.204;8.140;2023-11-21T13:57:15;12.20;90.30
73576;DHT22;61859;49.204;8.140;2023-11-21T13:59:41;12.40;90.20
73576;DHT22;61859;49.204;8.140;2023-11-21T14:02:09;12.50;89.70
73576;DHT22;61859;49.204;8.140;2023-11-21T14:04:44;12.70;89.40
73576;DHT22;61859;49.204;8.140;2023-11-21T14:07:26;12.80;88.40
73576;DHT22;61859;49.204;8.140;2023-11-21T14:09:57;12.90;87.90
73576;DHT22;61859;49.204;8.140;2023-11-21T14:12:24;12.90;86.90
73576;DHT22;61859;49.204;8.140;2023-11-21T14:14:49;13.00;87.30
73576;DHT22;61859;49.204;8.140;2023-11-21T14:17:15;12.80;87.00
73576;DHT22;61859;49.204;8.140;2023-11-21T14:19:40;12.90;87.10
73576;DHT22;61859;49.204;8.140;2023-11-21T14:22:10;12.90;87.20
73576;DHT22;61859;49.204;8.140;2023-11-21T14:24:35;12.80;87.40
73576;DHT22;61859;49.204;8.140;2023-11-21T14:27:02;12.70;87.70
73576;DHT22;61859;49.204;8.140;2023-11-21T14:29:28;12.60;88.00
73576;DHT22;61859;49.204;8.140;2023-11-21T14:31:55;12.70;88.40
73576;DHT22;61859;49.204;8.140;2023-11-21T14:34:23;12.70;88.00
73576;DHT22;61859;49.204;8.140;2023-11-21T14:36:51;12.70;87.70
73576;DHT22;61859;49.204;8.140;2023-11-21T14:39:17;12.80;87.40
73576;DHT22;61859;49.204;8.140;2023-11-21T14:41:52;12.60;87.90
73576;DHT22;61859;49.204;8.140;2023-11-21T14:44:18;12.60;87.00
73576;DHT22;61859;49.204;8.140;2023-11-21T14:46:44;12.50;86.20
73576;DHT22;61859;49.204;8.140;2023-11-21T14:49:13;12.50;86.40
73576;DHT22;61859;49.204;8.140;2023-11-21T14:51:46;12.40;86.20
73576;DHT22;61859;49.204;8.140;2023-11-21T14:54:44;12.40;86.30
73576;DHT22;61859;49.204;8.140;2023-11-21T14:57:13;12.40;86.60
73576;DHT22;61859;49.204;8.140;2023-11-21T14:59:44;12.30;85.80
73576;DHT22;61859;49.204;8.140;2023-11-21T15:02:16;12.30;85.80
73576;DHT22;61859;49.204;8.140;2023-11-21T15:04:46;12.30;86.60
73576;DHT22;61859;49.204;8.140;2023-11-21T15:07:13;12.20;87.90
73576;DHT22;61859;49.204;8.140;2023-11-21T15:09:39;12.20;88.30
73576;DHT22;61859;49.204;8.140;2023-11-21T15:12:07;12.00;88.70
73576;DHT22;61859;49.204;8.140;2023-11-21T15:14:51;11.90;88.30
73576;DHT22;61859;49.204;8.140;2023-11-21T15:17:21;12.00;88.20
73576;DHT22;61859;49.204;8.140;2023-11-21T15:19:56;11.70;88.30
73576;DHT22;61859;49.204;8.140;2023-11-21T15:22:22;11.50;88.30
73576;DHT22;61859;49.204;8.140;2023-11-21T15:24:47;11.40;88.90
73576;DHT22;61859;49.204;8.140;2023-11-21T15:27:15;11.10;89.40
73576;DHT22;61859;49.204;8.140;2023-11-21T15:29:41;11.00;90.00
73576;DHT22;61859;49.204;8.140;2023-11-21T15:32:08;10.90;90.50
73576;DHT22;61859;49.204;8.140;2023-11-21T15:34:35;10.70;91.10
73576;DHT22;61859;49.204;8.140;2023-11-21T15:37:01;10.60;91.70
73576;DHT22;61859;49.204;8.140;2023-11-21T15:39:26;10.30;92.10
73576;DHT22;61859;49.204;8.140;2023-11-21T15:41:59;10.30;92.70
73576;DHT22;61859;49.204;8.140;2023-11-21T15:44:25;10.20;93.30
73576;DHT22;61859;49.204;8.140;2023-11-21T15:46:52;10.10;93.70
73576;DHT22;61859;49.204;8.140;2023-11-21T15:49:18;9.90;94.60